Time,TemperatureF,DewpointF,PressureIn,WindDirection,WindDirectionDegrees,WindSpeedMPH,WindSpeedGustMPH,Humidity,HourlyPrecipIn,Conditions,Clouds,dailyrainin,SoftwareType,DateUTC
2015-07-07 00:14:00,69.1,68.2,29.85,South,180,0.0,-999.0,97,-99.99,,,0.00,Acu-Link.com,2015-07-07 04:14:00,
2015-07-07 00:29:00,69.1,68.2,29.85,SSE,157,0.0,-999.0,97,-99.99,,,0.00,Acu-Link.com,2015-07-07 04:29:00,
2015-07-07 00:44:00,68.5,68.0,29.85,SSE,157,0.0,-999.0,98,-99.99,,,0.00,Acu-Link.com,2015-07-07 04:44:00,
2015-07-07 00:59:00,68.4,67.8,29.84,ESE,112,0.0,-999.0,98,-99.99,,,0.00,Acu-Link.com,2015-07-07 04:59:00,
2015-07-07 01:14:00,68.0,67.4,29.84,SSE,157,0.0,-999.0,98,-99.99,,,0.00,Acu-Link.com,2015-07-07 05:14:00,
2015-07-07 01:30:00,67.8,67.5,29.83,SW,225,0.0,-999.0,99,-99.99,,,0.00,Acu-Link.com,2015-07-07 05:30:00,
2015-07-07 01:45:00,67.6,67.3,29.83,NNW,337,0.0,-999.0,99,-99.99,,,0.00,Acu-Link.com,2015-07-07 05:45:00,
2015-07-07 02:00:00,67.5,67.2,29.83,SW,225,0.0,-999.0,99,-99.99,,,0.00,Acu-Link.com,2015-07-07 06:00:00,
2015-07-07 02:15:00,67.5,67.2,29.84,East,90,0.0,-999.0,99,-99.99,,,0.00,Acu-Link.com,2015-07-07 06:15:00,
2015-07-07 02:30:00,67.6,67.3,29.83,SSE,157,0.0,-999.0,99,-99.99,,,0.00,Acu-Link.com,2015-07-07 06:30:00,
2015-07-07 02:45:00,67.5,67.2,29.83,SSE,157,1.1,-999.0,99,-99.99,,,0.00,Acu-Link.com,2015-07-07 06:45:00,
2015-07-07 03:01:00,67.5,67.2,29.82,East,90,0.0,-999.0,99,-99.99,,,0.00,Acu-Link.com,2015-07-07 07:01:00,
2015-07-07 03:16:00,68.4,68.1,29.82,SSW,202,4.3,-999.0,99,-99.99,,,0.00,Acu-Link.com,2015-07-07 07:16:00,
2015-07-07 03:31:00,68.4,68.1,29.83,ESE,112,1.1,-999.0,99,-99.99,,,0.00,Acu-Link.com,2015-07-07 07:31:00,
2015-07-07 03:46:00,68.2,67.9,29.82,South,180,3.1,-999.0,99,-99.99,,,0.00,Acu-Link.com,2015-07-07 07:46:00,
2015-07-07 04:01:00,67.8,67.5,29.82,SE,135,0.0,-999.0,99,-99.99,,,0.00,Acu-Link.com,2015-07-07 08:01:00,
2015-07-07 04:16:00,67.5,67.2,29.82,SSW,202,2.7,-999.0,99,-99.99,,,0.00,Acu-Link.com,2015-07-07 08:16:00,
2015-07-07 04:32:00,67.3,67.0,29.82,WSW,247,0.0,-999.0,99,-99.99,,,0.00,Acu-Link.com,2015-07-07 08:32:00,
2015-07-07 04:47:00,66.9,66.6,29.83,ESE,112,0.0,-999.0,99,-99.99,,,0.00,Acu-Link.com,2015-07-07 08:47:00,
2015-07-07 05:02:00,66.9,66.6,29.83,SSW,202,1.1,-999.0,99,-99.99,,,0.00,Acu-Link.com,2015-07-07 09:02:00,
2015-07-07 05:17:00,67.1,66.8,29.82,ESE,112,0.0,-999.0,99,-99.99,,,0.00,Acu-Link.com,2015-07-07 09:17:00,